createdAt,value
2023-01-17T00:01:07.778Z,36.30
2023-01-17T00:06:48.418Z,32.90
2023-01-17T00:12:10.406Z,32.50
2023-01-17T00:17:32.717Z,47.80
2023-01-17T00:23:13.402Z,40.00
2023-01-17T00:28:38.326Z,31.40
2023-01-17T00:34:00.117Z,33.30
2023-01-17T00:39:22.107Z,27.90
2023-01-17T00:45:02.940Z,27.70
2023-01-17T00:50:43.622Z,32.70
2023-01-17T00:56:25.080Z,30.60
2023-01-17T01:02:06.097Z,32.60
2023-01-17T01:07:47.059Z,33.60
2023-01-17T01:13:27.794Z,33.60
2023-01-17T01:19:08.693Z,24.80
2023-01-17T01:24:49.578Z,29.40
2023-01-17T01:30:30.410Z,23.90
2023-01-17T01:35:54.350Z,22.20
2023-01-17T01:41:16.451Z,27.40
2023-01-17T01:46:40.245Z,18.80
2023-01-17T01:52:03.728Z,18.80
2023-01-17T01:57:30.328Z,17.30
2023-01-17T02:02:53.821Z,15.20
2023-01-17T02:08:19.245Z,17.30
2023-01-17T02:13:41.183Z,13.50
2023-01-17T02:19:41.021Z,17.30
2023-01-17T02:25:37.875Z,17.10
2023-01-17T02:31:16.037Z,15.80
2023-01-17T02:36:48.753Z,13.80
2023-01-17T02:42:16.128Z,12.90
2023-01-17T02:47:38.628Z,12.50
2023-01-17T02:53:21.566Z,7.80
2023-01-17T02:58:55.193Z,6.80
2023-01-17T03:04:44.931Z,6.20
2023-01-17T03:15:30.021Z,8.90
2023-01-17T03:20:51.742Z,8.50
2023-01-17T03:26:13.537Z,6.70
2023-01-17T03:31:35.657Z,8.80
2023-01-17T03:36:57.525Z,9.30
2023-01-17T03:42:19.826Z,6.20
2023-01-17T03:47:41.945Z,10.50
2023-01-17T03:53:03.872Z,12.00
2023-01-17T03:58:25.859Z,16.00
2023-01-17T04:03:47.799Z,11.10
2023-01-17T04:09:10.069Z,19.30
2023-01-17T04:14:32.267Z,25.00
2023-01-17T04:19:57.047Z,14.80
2023-01-17T04:25:18.720Z,13.90
2023-01-17T04:30:43.874Z,17.10
2023-01-17T04:36:06.761Z,15.60
2023-01-17T04:41:28.597Z,18.70
2023-01-17T04:46:50.644Z,21.60
2023-01-17T04:52:12.697Z,18.10
2023-01-17T04:57:35.156Z,23.30
2023-01-17T05:02:56.994Z,24.90
2023-01-17T05:08:19.316Z,54.50
2023-01-17T05:13:41.450Z,37.10
2023-01-17T05:19:03.502Z,36.20
2023-01-17T05:24:25.080Z,24.50
2023-01-17T05:29:47.042Z,13.40
2023-01-17T05:35:09.763Z,38.40
2023-01-17T05:40:32.993Z,51.90
2023-01-17T05:45:55.555Z,28.70
2023-01-17T05:51:17.153Z,27.00
2023-01-17T05:56:39.286Z,43.70
2023-01-17T06:02:00.961Z,40.90
2023-01-17T06:07:23.242Z,75.70
2023-01-17T06:12:45.936Z,48.20
2023-01-17T06:18:12.624Z,47.90
2023-01-17T06:23:34.487Z,48.30
2023-01-17T06:28:56.584Z,40.50
2023-01-17T06:34:18.810Z,25.70
2023-01-17T06:39:40.438Z,17.90
2023-01-17T06:45:02.405Z,16.20
2023-01-17T06:50:25.802Z,14.40
2023-01-17T06:55:47.639Z,13.60
2023-01-17T07:01:11.155Z,19.00
2023-01-17T07:06:36.076Z,22.20
2023-01-17T07:12:02.155Z,26.80
2023-01-17T07:17:24.667Z,26.20
2023-01-17T07:22:46.712Z,26.00
2023-01-17T07:28:09.143Z,27.30
2023-01-17T07:33:30.988Z,22.10
2023-01-17T07:38:52.702Z,24.80
2023-01-17T07:44:14.709Z,27.60
2023-01-17T07:49:36.457Z,26.60
2023-01-17T07:54:58.587Z,27.70
2023-01-17T08:00:23.184Z,27.20
2023-01-17T08:05:55.747Z,32.80
2023-01-17T08:11:17.732Z,26.90
2023-01-17T08:16:40.325Z,28.20
2023-01-17T08:22:02.488Z,30.90
2023-01-17T08:27:25.218Z,27.60
2023-01-17T08:32:47.347Z,25.10
2023-01-17T08:38:08.981Z,39.10
2023-01-17T08:43:30.851Z,30.70
2023-01-17T08:48:56.762Z,25.60
2023-01-17T08:54:19.246Z,27.60
2023-01-17T08:59:44.278Z,27.40
2023-01-17T09:05:06.923Z,38.00
2023-01-17T09:10:29.207Z,23.60
2023-01-17T09:15:50.972Z,22.60
2023-01-17T09:21:18.400Z,23.70
2023-01-17T09:26:40.808Z,24.70
2023-01-17T09:32:02.665Z,22.40
2023-01-17T09:37:24.491Z,22.90
2023-01-17T09:42:50.891Z,25.50
2023-01-17T09:48:21.459Z,25.80
2023-01-17T09:53:44.097Z,21.10
2023-01-17T09:59:35.423Z,20.00
2023-01-17T10:05:30.011Z,20.70
2023-01-17T10:11:13.949Z,18.80
2023-01-17T10:16:52.664Z,19.70
2023-01-17T10:22:33.051Z,15.40
2023-01-17T10:28:00.317Z,21.10
2023-01-17T10:33:25.568Z,13.40
2023-01-17T10:38:53.309Z,17.30
2023-01-17T10:44:39.302Z,12.40
2023-01-17T10:50:05.464Z,18.30
2023-01-17T10:55:44.265Z,16.30
2023-01-17T11:01:15.133Z,12.10
2023-01-17T11:06:53.189Z,10.70
2023-01-17T11:12:43.911Z,9.40
2023-01-17T11:18:07.244Z,7.20
2023-01-17T11:23:33.399Z,8.50
2023-01-17T11:29:16.006Z,9.20
2023-01-17T11:34:38.823Z,18.70
2023-01-17T11:40:08.186Z,9.30
2023-01-17T11:45:32.515Z,11.00
2023-01-17T11:50:57.960Z,12.90
2023-01-17T11:56:33.940Z,6.20
2023-01-17T12:02:04.701Z,6.30
2023-01-17T12:07:52.065Z,9.80
2023-01-17T12:13:41.806Z,8.80
2023-01-17T12:19:07.139Z,6.00
2023-01-17T12:24:48.183Z,9.30
2023-01-17T12:30:17.736Z,10.70
2023-01-17T12:35:51.050Z,10.60
2023-01-17T12:41:26.759Z,9.90
2023-01-17T12:47:00.562Z,11.90
2023-01-17T12:52:54.814Z,9.30
2023-01-17T12:58:21.878Z,15.30
2023-01-17T13:04:03.542Z,7.80
2023-01-17T13:09:28.295Z,10.20
2023-01-17T13:14:50.209Z,17.30
2023-01-17T13:20:43.225Z,18.60
2023-01-17T13:26:14.336Z,12.50
2023-01-17T13:31:48.353Z,10.70
2023-01-17T13:37:25.965Z,16.50
2023-01-17T13:43:01.176Z,25.80
2023-01-17T13:48:23.376Z,17.40
2023-01-17T13:53:46.221Z,15.60
2023-01-17T13:59:27.703Z,78.40
2023-01-17T14:05:30.782Z,31.10
2023-01-17T14:10:54.311Z,15.80
2023-01-17T14:16:21.818Z,21.70
2023-01-17T14:21:43.917Z,17.20
2023-01-17T14:27:16.256Z,27.30
2023-01-17T14:32:39.091Z,13.80
2023-01-17T14:38:03.168Z,21.30
2023-01-17T14:43:28.226Z,24.20
2023-01-17T14:48:51.705Z,21.40
2023-01-17T14:54:19.358Z,20.50
2023-01-17T14:59:41.179Z,34.00
2023-01-17T15:05:02.916Z,30.70
2023-01-17T15:10:30.404Z,28.90
2023-01-17T15:16:06.650Z,44.10
2023-01-17T15:21:33.501Z,40.90
2023-01-17T15:26:55.315Z,33.80
2023-01-17T15:32:24.134Z,45.80
2023-01-17T15:43:18.895Z,52.30
2023-01-17T15:48:45.072Z,49.80
2023-01-17T15:54:26.304Z,56.70
2023-01-17T15:59:53.852Z,50.60
2023-01-17T16:05:25.120Z,74.00
2023-01-17T16:10:47.145Z,138.30
2023-01-17T16:16:21.250Z,123.00
2023-01-17T16:21:45.255Z,97.00
2023-01-17T16:27:09.291Z,141.50
2023-01-17T16:32:32.333Z,151.90
2023-01-17T16:37:54.354Z,172.80
2023-01-17T16:43:18.391Z,125.00
2023-01-17T16:48:40.125Z,113.00
2023-01-17T16:54:02.315Z,148.40
2023-01-17T16:59:25.110Z,180.20
2023-01-17T17:04:46.805Z,167.20
2023-01-17T17:10:10.755Z,158.10
2023-01-17T17:15:32.782Z,138.50
2023-01-17T17:20:55.013Z,160.80
2023-01-17T17:26:16.744Z,125.20
2023-01-17T17:31:42.516Z,127.20
2023-01-17T17:37:04.933Z,94.00
2023-01-17T17:42:26.832Z,71.90
2023-01-17T17:47:48.828Z,98.80
2023-01-17T17:53:10.750Z,106.40
2023-01-17T17:58:34.614Z,91.00
2023-01-17T18:04:00.976Z,118.90
2023-01-17T18:09:22.859Z,103.50
2023-01-17T18:14:44.852Z,99.80
2023-01-17T18:20:07.863Z,82.20
2023-01-17T18:25:29.737Z,78.10
2023-01-17T18:30:51.630Z,75.60
2023-01-17T18:36:14.103Z,86.80
2023-01-17T18:41:35.942Z,92.00
2023-01-17T18:47:02.040Z,140.40
2023-01-17T18:52:24.665Z,178.80
2023-01-17T18:57:46.455Z,145.90
2023-01-17T19:03:08.416Z,157.50
2023-01-17T19:08:32.762Z,180.10
2023-01-17T19:13:55.492Z,212.70
2023-01-17T19:19:17.617Z,270.60
2023-01-17T19:24:40.665Z,333.30
2023-01-17T19:30:02.686Z,295.10
2023-01-17T19:35:24.428Z,208.80
2023-01-17T19:40:46.526Z,191.80
2023-01-17T19:46:09.008Z,201.00
2023-01-17T19:51:31.613Z,186.50
2023-01-17T19:56:53.534Z,180.70
2023-01-17T20:02:15.658Z,181.30
2023-01-17T20:07:37.898Z,152.70
2023-01-17T20:12:59.623Z,133.20
2023-01-17T20:18:22.618Z,126.70
2023-01-17T20:23:47.295Z,141.30
2023-01-17T20:29:12.877Z,149.30
2023-01-17T20:34:36.774Z,153.70
2023-01-17T20:39:58.707Z,156.90
2023-01-17T20:45:20.434Z,157.40
2023-01-17T20:50:42.259Z,182.70
2023-01-17T20:56:05.193Z,170.00
2023-01-17T21:01:27.302Z,178.50
2023-01-17T21:06:51.962Z,168.40
2023-01-17T21:12:14.796Z,169.20
2023-01-17T21:17:40.849Z,174.20
2023-01-17T21:23:03.742Z,190.30
2023-01-17T21:28:28.014Z,153.20
2023-01-17T21:34:10.869Z,175.20
2023-01-17T21:39:33.040Z,166.40
2023-01-17T21:44:55.985Z,187.00
2023-01-17T21:50:32.438Z,172.40
2023-01-17T21:56:19.577Z,189.50
2023-01-17T22:01:41.560Z,224.90
2023-01-17T22:07:03.531Z,207.40
2023-01-17T22:12:25.437Z,174.10
2023-01-17T22:17:47.691Z,172.00
2023-01-17T22:23:10.224Z,157.70
2023-01-17T22:28:33.358Z,160.80
2023-01-17T22:34:03.423Z,164.10
2023-01-17T22:39:25.457Z,174.10
2023-01-17T22:44:47.991Z,162.90
2023-01-17T22:50:10.670Z,116.70
2023-01-17T22:55:32.535Z,97.60
2023-01-17T23:01:02.847Z,103.60
2023-01-17T23:06:28.913Z,98.30
2023-01-17T23:11:53.076Z,111.50
2023-01-17T23:17:33.271Z,108.20
2023-01-17T23:22:55.518Z,104.20
2023-01-17T23:28:20.992Z,94.40
2023-01-17T23:33:42.779Z,85.30
2023-01-17T23:39:04.705Z,87.60
2023-01-17T23:44:31.780Z,97.20
2023-01-17T23:49:53.377Z,92.10
2023-01-17T23:55:15.508Z,97.20
